createdAt,value
2018-10-01T00:00:01.997Z,51.56
2018-10-01T00:02:32.627Z,51.06
2018-10-01T00:05:02.935Z,52.45
2018-10-01T00:07:33.292Z,52.32
2018-10-01T00:10:03.897Z,51.10
2018-10-01T00:12:34.388Z,51.67
2018-10-01T00:15:04.856Z,52.24
2018-10-01T00:17:35.740Z,52.11
2018-10-01T00:20:11.491Z,51.58
2018-10-01T00:22:49.259Z,51.97
2018-10-01T00:25:19.918Z,52.02
2018-10-01T00:27:50.567Z,51.79
2018-10-01T00:30:21.801Z,50.74
2018-10-01T00:32:53.038Z,50.80
2018-10-01T00:35:23.623Z,51.01
2018-10-01T00:37:56.279Z,50.77
2018-10-01T00:40:26.944Z,49.87
2018-10-01T00:42:57.567Z,49.28
2018-10-01T00:45:29.675Z,49.85
2018-10-01T00:48:00.262Z,50.68
2018-10-01T00:50:31.221Z,50.10
2018-10-01T00:53:02.350Z,49.59
2018-10-01T00:55:33.411Z,50.50
2018-10-01T00:58:03.992Z,50.26
2018-10-01T01:00:34.822Z,51.38
2018-10-01T01:03:05.785Z,54.34
2018-10-01T01:05:36.861Z,55.70
2018-10-01T01:08:08.349Z,57.21
2018-10-01T01:10:39.068Z,56.73
2018-10-01T01:13:09.764Z,54.70
2018-10-01T01:15:40.440Z,53.26
2018-10-01T01:18:12.939Z,52.51
2018-10-01T01:20:43.589Z,52.33
2018-10-01T01:23:17.653Z,52.59
2018-10-01T01:25:48.008Z,53.84
2018-10-01T01:28:18.967Z,55.87
2018-10-01T01:30:49.544Z,57.61
2018-10-01T01:33:19.939Z,57.85
2018-10-01T01:35:50.376Z,58.46
2018-10-01T01:38:21.216Z,59.13
2018-10-01T01:40:51.530Z,60.30
2018-10-01T01:43:22.892Z,60.42
2018-10-01T01:45:53.723Z,60.54
2018-10-01T01:48:24.338Z,61.07
2018-10-01T01:50:54.951Z,60.43
2018-10-01T01:53:25.821Z,60.42
2018-10-01T01:55:56.560Z,59.50
2018-10-01T01:58:27.172Z,64.23
2018-10-01T02:00:58.046Z,65.16
2018-10-01T02:03:28.591Z,63.98
2018-10-01T02:05:58.909Z,61.56
2018-10-01T02:08:29.462Z,59.48
2018-10-01T02:11:00.874Z,60.38
2018-10-01T02:13:31.353Z,60.73
2018-10-01T02:16:02.340Z,61.07
2018-10-01T02:18:33.727Z,61.33
2018-10-01T02:21:04.354Z,60.29
2018-10-01T02:23:35.877Z,59.36
2018-10-01T02:26:06.561Z,58.38
2018-10-01T02:28:37.147Z,57.44
2018-10-01T02:31:07.924Z,56.87
2018-10-01T02:33:38.758Z,57.09
2018-10-01T02:36:09.403Z,57.23
2018-10-01T02:38:42.848Z,58.29
2018-10-01T02:41:13.802Z,59.81
2018-10-01T02:43:44.390Z,61.79
2018-10-01T02:46:15.146Z,62.50
2018-10-01T02:48:45.684Z,62.62
2018-10-01T02:51:16.147Z,62.65
2018-10-01T02:53:52.258Z,62.90
2018-10-01T02:56:22.809Z,63.25
2018-10-01T02:58:53.544Z,64.09
2018-10-01T03:01:24.492Z,65.20
2018-10-01T03:03:55.248Z,65.60
2018-10-01T03:06:25.712Z,65.14
2018-10-01T03:08:56.395Z,64.90
2018-10-01T03:11:27.350Z,64.81
2018-10-01T03:14:00.216Z,64.84
2018-10-01T03:16:31.336Z,64.70
2018-10-01T03:19:02.390Z,65.21
2018-10-01T03:21:32.661Z,66.41
2018-10-01T03:24:03.501Z,66.97
2018-10-01T03:26:34.065Z,67.84
2018-10-01T03:29:04.591Z,68.49
2018-10-01T03:31:35.301Z,68.78
2018-10-01T03:34:05.926Z,68.89
2018-10-01T03:36:37.450Z,69.42
2018-10-01T03:39:09.564Z,69.74
2018-10-01T03:41:40.554Z,68.95
2018-10-01T03:44:11.695Z,69.05
2018-10-01T03:46:42.380Z,69.25
2018-10-01T03:49:13.474Z,69.17
2018-10-01T03:51:45.257Z,69.45
2018-10-01T03:54:15.858Z,69.43
2018-10-01T03:56:46.609Z,70.13
2018-10-01T03:59:16.912Z,70.99
2018-10-01T04:01:47.975Z,71.86
2018-10-01T04:04:18.593Z,71.79
2018-10-01T04:06:49.329Z,72.20
2018-10-01T04:09:19.929Z,72.03
2018-10-01T04:11:51.001Z,72.23
2018-10-01T04:14:21.297Z,72.42
2018-10-01T04:16:51.644Z,72.87
2018-10-01T04:19:21.963Z,72.89
2018-10-01T04:21:52.792Z,73.05
2018-10-01T04:24:23.279Z,73.39
2018-10-01T04:26:54.287Z,74.37
2018-10-01T04:29:28.048Z,74.40
2018-10-01T04:31:58.392Z,74.53
2018-10-01T04:34:29.010Z,75.17
2018-10-01T04:36:59.526Z,74.93
2018-10-01T04:39:30.077Z,74.59
2018-10-01T04:42:00.673Z,74.82
2018-10-01T04:44:31.578Z,74.50
2018-10-01T04:47:03.612Z,74.49
2018-10-01T04:49:34.196Z,74.30
2018-10-01T04:52:04.877Z,74.23
2018-10-01T04:54:36.784Z,73.94
2018-10-01T04:57:07.849Z,73.85
2018-10-01T04:59:38.442Z,73.06
2018-10-01T05:02:09.108Z,72.92
2018-10-01T05:04:40.960Z,72.47
2018-10-01T05:07:11.261Z,72.33
2018-10-01T05:09:42.150Z,72.85
2018-10-01T05:12:12.920Z,72.72
2018-10-01T05:14:43.990Z,72.77
2018-10-01T05:17:15.107Z,73.30
2018-10-01T05:19:46.517Z,73.34
2018-10-01T05:22:17.136Z,72.96
2018-10-01T05:24:47.421Z,72.32
2018-10-01T05:27:18.760Z,72.00
2018-10-01T05:29:49.480Z,72.45
2018-10-01T05:32:20.244Z,72.50
2018-10-01T05:34:56.590Z,72.83
2018-10-01T05:37:27.597Z,72.26
2018-10-01T05:39:58.841Z,71.91
2018-10-01T05:42:30.043Z,71.47
2018-10-01T05:45:01.055Z,70.85
2018-10-01T05:47:31.374Z,69.46
2018-10-01T05:50:02.633Z,68.53
2018-10-01T05:52:33.366Z,68.54
2018-10-01T05:55:03.919Z,68.51
2018-10-01T05:57:34.840Z,67.59
2018-10-01T06:00:06.020Z,67.13
2018-10-01T06:02:36.394Z,66.58
2018-10-01T06:05:07.872Z,65.88
2018-10-01T06:07:38.261Z,64.42
2018-10-01T06:10:08.829Z,62.71
2018-10-01T06:12:39.476Z,60.54
2018-10-01T06:15:10.514Z,59.89
2018-10-01T06:17:41.662Z,59.15
2018-10-01T06:20:13.380Z,58.45
2018-10-01T06:22:44.756Z,56.87
2018-10-01T06:25:15.558Z,56.30
2018-10-01T06:27:46.475Z,57.01
2018-10-01T06:30:17.118Z,58.66
2018-10-01T06:32:48.444Z,57.82
2018-10-01T06:35:18.964Z,57.97
2018-10-01T06:37:49.633Z,58.52
2018-10-01T06:40:20.425Z,59.52
2018-10-01T06:42:50.690Z,59.92
2018-10-01T06:45:21.132Z,58.92
2018-10-01T06:47:51.972Z,60.16
2018-10-01T06:50:22.522Z,59.24
2018-10-01T06:52:52.848Z,59.88
2018-10-01T06:55:23.386Z,57.48
2018-10-01T06:57:54.162Z,55.20
2018-10-01T07:00:24.745Z,56.04
2018-10-01T07:02:55.517Z,57.72
2018-10-01T07:05:26.705Z,58.64
2018-10-01T07:07:57.942Z,58.17
2018-10-01T07:10:28.648Z,57.86
2018-10-01T07:12:59.208Z,57.17
2018-10-01T07:15:29.576Z,57.65
2018-10-01T07:18:00.121Z,57.64
2018-10-01T07:20:30.781Z,57.21
2018-10-01T07:23:01.829Z,56.56
2018-10-01T07:25:32.218Z,56.23
2018-10-01T07:28:02.603Z,54.56
2018-10-01T07:30:33.345Z,54.42
2018-10-01T07:33:03.991Z,54.87
2018-10-01T07:35:35.123Z,52.70
2018-10-01T07:38:06.355Z,52.72
2018-10-01T07:40:37.384Z,51.49
2018-10-01T07:43:08.007Z,50.61
2018-10-01T07:45:38.537Z,50.31
2018-10-01T07:48:09.416Z,49.36
2018-10-01T07:50:40.364Z,49.31
2018-10-01T07:53:10.795Z,48.78
2018-10-01T07:55:41.459Z,50.46
2018-10-01T07:58:12.220Z,49.51
2018-10-01T08:00:42.775Z,49.03
2018-10-01T08:03:13.133Z,48.18
2018-10-01T08:05:43.806Z,48.91
2018-10-01T08:08:14.341Z,49.45
2018-10-01T08:10:45.212Z,51.00
2018-10-01T08:13:15.903Z,51.12
2018-10-01T08:15:46.585Z,50.22
2018-10-01T08:18:17.704Z,50.24
2018-10-01T08:20:48.316Z,50.36
2018-10-01T08:23:19.893Z,48.49
2018-10-01T08:25:51.142Z,50.27
2018-10-01T08:28:22.207Z,51.14
2018-10-01T08:30:52.755Z,51.62
2018-10-01T08:33:23.281Z,50.10
2018-10-01T08:35:54.112Z,49.79
2018-10-01T08:38:26.297Z,49.47
2018-10-01T08:40:57.129Z,49.11
2018-10-01T08:43:27.845Z,51.61
2018-10-01T08:45:58.348Z,52.48
2018-10-01T08:48:30.622Z,51.58
2018-10-01T08:51:05.821Z,52.62
2018-10-01T08:53:48.128Z,52.01
2018-10-01T08:56:18.508Z,50.92
2018-10-01T08:58:50.311Z,50.86
2018-10-01T09:01:21.001Z,52.78
2018-10-01T09:03:51.589Z,51.96
2018-10-01T09:06:23.183Z,50.70
2018-10-01T09:08:54.697Z,50.03
2018-10-01T09:11:25.875Z,50.48
2018-10-01T09:13:56.633Z,51.89
2018-10-01T09:16:27.855Z,52.28
2018-10-01T09:18:59.229Z,50.14
2018-10-01T09:21:33.135Z,48.79
2018-10-01T09:24:03.908Z,48.71
2018-10-01T09:26:35.018Z,49.76
2018-10-01T09:29:05.826Z,50.30
2018-10-01T09:31:36.216Z,50.52
2018-10-01T09:34:07.129Z,49.19
2018-10-01T09:36:38.009Z,49.76
2018-10-01T09:39:10.766Z,50.83
2018-10-01T09:41:42.579Z,51.08
2018-10-01T09:44:13.817Z,50.35
2018-10-01T09:46:44.387Z,50.75
2018-10-01T09:49:16.102Z,51.00
2018-10-01T09:51:46.833Z,49.51
2018-10-01T09:54:17.362Z,47.69
2018-10-01T09:56:48.305Z,45.86
2018-10-01T09:59:18.660Z,45.27
2018-10-01T10:01:49.034Z,44.98
2018-10-01T10:04:19.496Z,44.07
2018-10-01T10:06:50.365Z,43.67
2018-10-01T10:11:59.907Z,43.93
2018-10-01T10:14:31.762Z,43.17
2018-10-01T10:17:03.573Z,43.78
2018-10-01T10:19:34.788Z,44.36
2018-10-01T10:22:05.540Z,42.72
2018-10-01T10:24:36.913Z,35.44
2018-10-01T10:27:07.473Z,23.84
2018-10-01T10:29:38.297Z,18.58
2018-10-01T10:32:09.395Z,17.68
2018-10-01T10:34:40.138Z,19.28
2018-10-01T10:37:10.649Z,18.38
2018-10-01T10:39:41.022Z,16.30
2018-10-01T10:42:11.521Z,16.57
2018-10-01T10:44:42.080Z,20.46
2018-10-01T10:47:12.825Z,30.60
2018-10-01T10:49:43.134Z,33.19
2018-10-01T10:52:13.665Z,35.32
2018-10-01T10:54:44.214Z,38.04
2018-10-01T10:57:14.816Z,36.50
2018-10-01T10:59:45.498Z,35.21
2018-10-01T11:02:16.458Z,34.86
2018-10-01T11:04:47.276Z,34.27
2018-10-01T11:07:17.742Z,35.57
2018-10-01T11:09:48.612Z,34.16
2018-10-01T11:12:19.210Z,33.80
2018-10-01T11:14:49.777Z,33.97
2018-10-01T11:17:50.920Z,34.01
2018-10-01T11:20:21.781Z,32.84
2018-10-01T11:22:52.130Z,34.47
2018-10-01T11:25:22.947Z,35.59
2018-10-01T11:27:53.665Z,35.38
2018-10-01T11:30:24.904Z,37.57
2018-10-01T11:32:55.202Z,39.59
2018-10-01T11:35:26.100Z,38.22
2018-10-01T11:37:56.683Z,39.63
2018-10-01T11:40:27.425Z,39.65
2018-10-01T11:42:58.066Z,38.35
2018-10-01T11:45:28.961Z,38.26
2018-10-01T11:47:59.705Z,40.10
2018-10-01T11:50:31.411Z,42.71
2018-10-01T11:53:01.892Z,44.19
2018-10-01T11:55:32.338Z,43.97
2018-10-01T11:58:02.595Z,44.02
2018-10-01T12:00:33.583Z,44.74
2018-10-01T12:03:04.061Z,45.48
2018-10-01T12:05:35.572Z,46.66
2018-10-01T12:08:05.849Z,45.63
2018-10-01T12:10:36.650Z,45.56
2018-10-01T12:13:07.491Z,48.00
2018-10-01T12:15:38.086Z,48.85
2018-10-01T12:18:09.373Z,48.96
2018-10-01T12:20:40.178Z,47.74
2018-10-01T12:23:10.821Z,48.05
2018-10-01T12:25:41.365Z,48.66
2018-10-01T12:28:12.133Z,49.40
2018-10-01T12:30:43.323Z,49.38
2018-10-01T12:33:14.272Z,49.64
2018-10-01T12:35:45.809Z,49.96
2018-10-01T12:38:17.308Z,50.29
2018-10-01T12:40:47.833Z,50.56
2018-10-01T12:43:18.361Z,51.16
2018-10-01T12:45:49.138Z,50.95
2018-10-01T12:48:19.673Z,51.83
2018-10-01T12:50:50.194Z,52.18
2018-10-01T12:53:22.189Z,51.80
2018-10-01T12:55:52.516Z,52.41
2018-10-01T12:58:23.452Z,51.64
2018-10-01T13:00:53.941Z,51.97
2018-10-01T13:03:25.224Z,52.59
2018-10-01T13:05:55.953Z,51.62
2018-10-01T13:08:26.524Z,52.71
2018-10-01T13:10:57.196Z,54.32
2018-10-01T13:13:27.930Z,54.54
2018-10-01T13:15:58.216Z,54.68
2018-10-01T13:18:28.812Z,54.42
2018-10-01T13:20:59.502Z,54.60
2018-10-01T13:23:30.009Z,55.81
2018-10-01T13:26:00.492Z,56.07
2018-10-01T13:28:30.817Z,56.30
2018-10-01T13:31:01.865Z,55.70
2018-10-01T13:33:32.326Z,56.35
2018-10-01T13:36:02.959Z,57.38
2018-10-01T13:38:34.514Z,57.68
2018-10-01T13:41:05.288Z,58.51
2018-10-01T13:43:36.316Z,58.65
2018-10-01T13:46:07.063Z,58.56
2018-10-01T13:48:37.952Z,59.68
2018-10-01T13:51:08.990Z,59.74
2018-10-01T13:53:39.728Z,59.79
2018-10-01T13:56:10.288Z,60.25
2018-10-01T13:58:45.656Z,60.59
2018-10-01T14:01:15.939Z,61.01
2018-10-01T14:03:46.643Z,61.47
2018-10-01T14:06:17.416Z,62.35
2018-10-01T14:08:48.931Z,63.04
2018-10-01T14:11:19.445Z,63.78
2018-10-01T14:13:50.187Z,64.03
2018-10-01T14:16:20.918Z,65.65
2018-10-01T14:18:51.218Z,66.03
2018-10-01T14:21:22.062Z,67.15
2018-10-01T14:23:52.606Z,67.79
2018-10-01T14:26:24.445Z,70.04
2018-10-01T14:28:55.078Z,69.69
2018-10-01T14:31:26.570Z,69.83
2018-10-01T14:33:57.535Z,71.16
2018-10-01T14:36:28.174Z,71.80
2018-10-01T14:38:58.940Z,72.17
2018-10-01T14:41:29.719Z,72.43
2018-10-01T14:44:00.498Z,73.47
2018-10-01T14:46:30.930Z,74.53
2018-10-01T14:49:01.492Z,74.52
2018-10-01T14:51:31.747Z,75.28
2018-10-01T14:54:02.368Z,75.41
2018-10-01T14:56:32.825Z,76.58
2018-10-01T14:59:03.381Z,76.92
2018-10-01T15:01:34.005Z,76.60
2018-10-01T15:04:04.743Z,77.15
2018-10-01T15:06:35.647Z,77.26
2018-10-01T15:09:08.974Z,78.14
2018-10-01T15:11:39.392Z,77.35
2018-10-01T15:14:09.652Z,77.20
2018-10-01T15:16:39.967Z,78.13
2018-10-01T15:19:10.488Z,77.86
2018-10-01T15:21:41.192Z,77.23
2018-10-01T15:24:12.388Z,77.65
2018-10-01T15:26:43.013Z,77.30
2018-10-01T15:29:13.524Z,77.48
2018-10-01T15:31:44.337Z,77.38
2018-10-01T15:34:15.081Z,77.86
2018-10-01T15:36:45.929Z,76.52
2018-10-01T15:39:16.836Z,76.74
2018-10-01T15:41:47.410Z,77.37
2018-10-01T15:44:18.046Z,76.94
2018-10-01T15:46:49.901Z,76.77
2018-10-01T15:49:20.219Z,76.71
2018-10-01T15:51:50.849Z,76.47
2018-10-01T15:54:21.483Z,76.56
2018-10-01T15:56:52.158Z,76.39
2018-10-01T15:59:22.808Z,76.58
2018-10-01T16:01:53.379Z,76.65
2018-10-01T16:04:23.626Z,76.43
2018-10-01T16:06:54.019Z,76.10
2018-10-01T16:09:24.665Z,76.63
2018-10-01T16:11:55.653Z,76.61
2018-10-01T16:14:26.611Z,76.75
2018-10-01T16:16:57.213Z,76.11
2018-10-01T16:19:28.708Z,76.28
2018-10-01T16:21:59.306Z,76.42
2018-10-01T16:24:29.510Z,76.43
2018-10-01T16:27:00.341Z,76.86
2018-10-01T16:29:31.985Z,76.89
2018-10-01T16:32:03.097Z,76.88
2018-10-01T16:34:33.828Z,77.78
2018-10-01T16:37:04.740Z,77.29
2018-10-01T16:39:35.637Z,77.06
2018-10-01T16:42:06.263Z,77.67
2018-10-01T16:44:41.341Z,77.69
2018-10-01T16:47:11.854Z,77.80
2018-10-01T16:49:42.409Z,77.61
2018-10-01T16:52:12.815Z,77.99
2018-10-01T16:54:43.510Z,78.12
2018-10-01T16:57:14.269Z,78.00
2018-10-01T16:59:45.060Z,78.22
2018-10-01T17:02:15.620Z,78.02
2018-10-01T17:04:46.153Z,77.74
2018-10-01T17:07:16.860Z,78.18
2018-10-01T17:09:47.491Z,77.73
2018-10-01T17:12:18.057Z,77.72
2018-10-01T17:14:48.592Z,78.28
2018-10-01T17:17:19.346Z,78.16
2018-10-01T17:19:49.713Z,78.37
2018-10-01T17:22:20.163Z,78.26
2018-10-01T17:24:50.577Z,78.07
2018-10-01T17:27:21.238Z,77.29
2018-10-01T17:29:51.670Z,77.39
2018-10-01T17:32:22.317Z,77.84
2018-10-01T17:34:52.744Z,77.76
2018-10-01T17:37:23.325Z,77.87
2018-10-01T17:39:53.836Z,77.79
2018-10-01T17:42:24.428Z,77.63
2018-10-01T17:44:55.291Z,77.39
2018-10-01T17:47:25.864Z,77.01
2018-10-01T17:49:56.624Z,76.84
2018-10-01T17:52:27.045Z,76.82
2018-10-01T17:54:57.699Z,77.21
2018-10-01T17:57:28.736Z,76.58
2018-10-01T17:59:59.708Z,76.35
2018-10-01T18:02:30.469Z,75.70
2018-10-01T18:05:00.776Z,76.29
2018-10-01T18:07:31.344Z,75.62
2018-10-01T18:10:02.995Z,75.44
2018-10-01T18:12:33.570Z,74.19
2018-10-01T18:15:04.458Z,74.02
2018-10-01T18:17:35.016Z,73.61
2018-10-01T18:20:05.456Z,73.77
2018-10-01T18:22:36.161Z,73.20
2018-10-01T18:25:07.777Z,73.04
2018-10-01T18:27:38.601Z,73.82
2018-10-01T18:30:10.114Z,73.87
2018-10-01T18:32:40.923Z,74.06
2018-10-01T18:35:11.612Z,74.54
2018-10-01T18:37:42.243Z,75.08
2018-10-01T18:40:14.559Z,75.03
2018-10-01T18:42:45.117Z,74.71
2018-10-01T18:45:18.024Z,74.82
2018-10-01T18:47:48.892Z,74.59
2018-10-01T18:50:19.837Z,75.49
2018-10-01T18:52:50.905Z,75.71
2018-10-01T18:55:21.466Z,75.92
2018-10-01T18:57:52.097Z,75.85
2018-10-01T19:00:22.870Z,75.88
2018-10-01T19:02:58.643Z,75.75
2018-10-01T19:05:29.258Z,75.96
2018-10-01T19:08:00.171Z,75.77
2018-10-01T19:10:30.505Z,75.25
2018-10-01T19:13:01.710Z,75.13
2018-10-01T19:15:32.308Z,75.56
2018-10-01T19:18:03.102Z,74.78
2018-10-01T19:20:33.802Z,74.20
2018-10-01T19:23:04.307Z,73.70
2018-10-01T19:25:34.868Z,73.99
2018-10-01T19:28:05.153Z,72.49
2018-10-01T19:30:37.441Z,72.58
2018-10-01T19:33:08.649Z,72.37
2018-10-01T19:35:39.368Z,72.10
2018-10-01T19:38:10.405Z,71.98
2018-10-01T19:40:41.232Z,72.05
2018-10-01T19:43:11.848Z,71.77
2018-10-01T19:45:42.784Z,71.75
2018-10-01T19:48:13.374Z,71.94
2018-10-01T19:50:44.005Z,72.05
2018-10-01T19:53:14.858Z,72.18
2018-10-01T19:55:45.637Z,72.62
2018-10-01T19:58:16.215Z,72.72
2018-10-01T20:00:46.916Z,72.87
2018-10-01T20:03:17.901Z,71.94
2018-10-01T20:05:48.355Z,72.30
2018-10-01T20:08:18.665Z,71.77
2018-10-01T20:10:49.264Z,71.67
2018-10-01T20:13:20.145Z,71.94
2018-10-01T20:15:51.331Z,72.23
2018-10-01T20:18:22.340Z,72.70
2018-10-01T20:20:52.976Z,72.97
2018-10-01T20:23:23.513Z,73.01
2018-10-01T20:25:54.138Z,72.76
2018-10-01T20:28:25.045Z,72.02
2018-10-01T20:30:56.074Z,71.75
2018-10-01T20:33:26.657Z,71.73
2018-10-01T20:35:57.180Z,71.26
2018-10-01T20:38:27.888Z,71.44
2018-10-01T20:40:58.748Z,71.80
2018-10-01T20:43:29.249Z,71.67
2018-10-01T20:46:00.179Z,71.89
2018-10-01T20:48:30.950Z,71.47
2018-10-01T20:51:01.655Z,71.79
2018-10-01T20:53:32.112Z,71.48
2018-10-01T20:56:02.907Z,71.71
2018-10-01T20:58:33.720Z,71.85
2018-10-01T21:01:04.738Z,71.93
2018-10-01T21:03:35.321Z,71.90
2018-10-01T21:06:05.872Z,71.91
2018-10-01T21:08:37.837Z,71.76
2018-10-01T21:11:09.060Z,71.75
2018-10-01T21:13:41.129Z,71.47
2018-10-01T21:16:14.808Z,71.46
2018-10-01T21:18:45.645Z,71.80
2018-10-01T21:21:17.353Z,71.41
2018-10-01T21:23:47.919Z,71.56
2018-10-01T21:26:18.461Z,71.42
2018-10-01T21:28:49.198Z,71.78
2018-10-01T21:31:19.777Z,71.77
2018-10-01T21:33:50.217Z,71.76
2018-10-01T21:36:20.822Z,71.14
2018-10-01T21:38:51.674Z,71.15
2018-10-01T21:41:23.433Z,71.00
2018-10-01T21:43:54.989Z,71.39
2018-10-01T21:46:26.189Z,71.09
2018-10-01T21:48:58.309Z,70.51
2018-10-01T21:51:29.867Z,70.36
2018-10-01T21:54:00.426Z,70.16
2018-10-01T21:56:30.793Z,70.08
2018-10-01T21:59:01.086Z,69.99
2018-10-01T22:01:38.643Z,69.69
2018-10-01T22:04:09.500Z,69.48
2018-10-01T22:06:39.978Z,69.71
2018-10-01T22:09:10.307Z,69.92
2018-10-01T22:11:41.451Z,69.75
2018-10-01T22:14:12.070Z,69.66
2018-10-01T22:16:42.291Z,69.64
2018-10-01T22:19:13.445Z,69.26
2018-10-01T22:21:44.772Z,69.38
2018-10-01T22:24:15.333Z,69.20
2018-10-01T22:26:45.840Z,69.08
2018-10-01T22:29:16.465Z,69.10
2018-10-01T22:31:47.243Z,68.99
2018-10-01T22:34:17.933Z,69.13
2018-10-01T22:36:48.474Z,69.39
2018-10-01T22:39:19.002Z,69.57
2018-10-01T22:41:49.659Z,69.85
2018-10-01T22:44:19.936Z,70.18
2018-10-01T22:46:50.707Z,70.18
2018-10-01T22:49:22.237Z,70.30
2018-10-01T22:51:53.175Z,70.67
2018-10-01T22:54:23.681Z,70.80
2018-10-01T22:56:54.176Z,70.79
2018-10-01T22:59:25.213Z,70.47
2018-10-01T23:01:55.500Z,70.79
2018-10-01T23:04:26.266Z,70.81
2018-10-01T23:06:56.657Z,70.76
2018-10-01T23:09:27.304Z,70.79
2018-10-01T23:11:57.915Z,70.78
2018-10-01T23:14:29.040Z,71.43
2018-10-01T23:16:59.631Z,71.59
2018-10-01T23:19:30.115Z,71.62
2018-10-01T23:22:00.730Z,71.76
2018-10-01T23:24:31.476Z,72.56
2018-10-01T23:27:01.996Z,72.30
2018-10-01T23:29:32.580Z,73.13
2018-10-01T23:32:03.034Z,72.92
2018-10-01T23:34:33.853Z,72.68
2018-10-01T23:37:04.377Z,73.38
2018-10-01T23:39:34.906Z,73.07
2018-10-01T23:42:05.449Z,72.99
2018-10-01T23:44:36.881Z,72.96
2018-10-01T23:47:07.808Z,73.18
2018-10-01T23:49:38.376Z,72.90
2018-10-01T23:52:09.751Z,73.24
2018-10-01T23:54:40.013Z,73.21
2018-10-01T23:57:10.705Z,72.92
2018-10-01T23:59:41.594Z,74.01
